sensor_id;sensor_type;location;lat;lon;timestamp;pressure;altitude;pressure_sealevel;temperature;humidity
68179;BME280;69812;42.632;23.440;2024-02-28T00:00:08;95438.53;;;3.30;91.76
68179;BME280;69812;42.632;23.440;2024-02-28T00:17:39;95447.75;;;3.63;92.37
68179;BME280;69812;42.632;23.440;2024-02-28T00:20:07;95447.91;;;3.60;91.01
68179;BME280;69812;42.632;23.440;2024-02-28T00:22:32;95452.34;;;3.40;90.59
68179;BME280;69812;42.632;23.440;2024-02-28T00:24:58;95448.56;;;3.32;90.77
68179;BME280;69812;42.632;23.440;2024-02-28T00:27:28;95452.25;;;3.26;90.61
68179;BME280;69812;42.632;23.440;2024-02-28T00:29:53;95444.97;;;3.20;90.68
68179;BME280;69812;42.632;23.440;2024-02-28T00:32:22;95449.81;;;3.24;91.25
68179;BME280;69812;42.632;23.440;2024-02-28T00:34:47;95453.47;;;3.19;91.34
68179;BME280;69812;42.632;23.440;2024-02-28T00:37:13;95453.38;;;3.04;91.15
68179;BME280;69812;42.632;23.440;2024-02-28T00:39:40;95449.84;;;2.91;91.53
68179;BME280;69812;42.632;23.440;2024-02-28T00:42:06;95446.38;;;2.76;91.69
68179;BME280;69812;42.632;23.440;2024-02-28T00:44:34;95438.22;;;2.71;92.04
68179;BME280;69812;42.632;23.440;2024-02-28T00:46:59;95444.69;;;2.59;92.15
68179;BME280;69812;42.632;23.440;2024-02-28T00:49:25;95442.16;;;2.59;92.66
68179;BME280;69812;42.632;23.440;2024-02-28T00:51:53;95443.22;;;2.55;93.09
68179;BME280;69812;42.632;23.440;2024-02-28T00:54:18;95452.03;;;2.48;93.44
68179;BME280;69812;42.632;23.440;2024-02-28T00:56:51;95436.72;;;2.67;94.00
68179;BME280;69812;42.632;23.440;2024-02-28T00:59:16;95439.00;;;2.72;94.32
68179;BME280;69812;42.632;23.440;2024-02-28T01:01:44;95433.63;;;2.78;94.47
68179;BME280;69812;42.632;23.440;2024-02-28T01:04:12;95444.53;;;2.80;94.97
68179;BME280;69812;42.632;23.440;2024-02-28T01:06:38;95428.59;;;2.94;95.22
68179;BME280;69812;42.632;23.440;2024-02-28T01:09:03;95447.00;;;2.97;95.33
68179;BME280;69812;42.632;23.440;2024-02-28T01:11:32;95454.97;;;2.74;95.30
68179;BME280;69812;42.632;23.440;2024-02-28T01:13:57;95458.41;;;2.55;94.86
68179;BME280;69812;42.632;23.440;2024-02-28T01:16:25;95448.44;;;2.52;95.40
68179;BME280;69812;42.632;23.440;2024-02-28T01:18:53;95460.84;;;2.74;95.85
68179;BME280;69812;42.632;23.440;2024-02-28T01:21:19;95442.06;;;2.94;96.50
68179;BME280;69812;42.632;23.440;2024-02-28T01:23:44;95449.16;;;3.53;94.92
68179;BME280;69812;42.632;23.440;2024-02-28T01:26:12;95463.56;;;3.36;94.05
68179;BME280;69812;42.632;23.440;2024-02-28T01:28:40;95469.94;;;3.43;93.88
68179;BME280;69812;42.632;23.440;2024-02-28T01:31:08;95464.63;;;3.32;94.62
68179;BME280;69812;42.632;23.440;2024-02-28T01:33:33;95469.59;;;3.34;94.78
68179;BME280;69812;42.632;23.440;2024-02-28T01:35:58;95476.16;;;3.22;94.92
68179;BME280;69812;42.632;23.440;2024-02-28T01:38:24;95468.78;;;3.17;95.24
68179;BME280;69812;42.632;23.440;2024-02-28T01:40:49;95448.19;;;2.90;95.10
68179;BME280;69812;42.632;23.440;2024-02-28T01:43:24;95465.97;;;2.73;94.42
68179;BME280;69812;42.632;23.440;2024-02-28T01:45:50;95460.97;;;2.38;94.31
68179;BME280;69812;42.632;23.440;2024-02-28T01:48:16;95454.28;;;2.19;93.83
68179;BME280;69812;42.632;23.440;2024-02-28T01:50:41;95471.63;;;2.27;94.11
68179;BME280;69812;42.632;23.440;2024-02-28T01:53:10;95467.06;;;2.34;94.29
68179;BME280;69812;42.632;23.440;2024-02-28T01:55:37;95458.06;;;2.11;94.48
68179;BME280;69812;42.632;23.440;2024-02-28T01:58:03;95479.28;;;2.08;94.10
68179;BME280;69812;42.632;23.440;2024-02-28T02:00:32;95479.13;;;1.94;94.28
68179;BME280;69812;42.632;23.440;2024-02-28T02:03:01;95482.63;;;1.91;94.50
68179;BME280;69812;42.632;23.440;2024-02-28T02:05:29;95467.06;;;1.99;94.70
68179;BME280;69812;42.632;23.440;2024-02-28T02:07:57;95484.72;;;2.00;94.79
68179;BME280;69812;42.632;23.440;2024-02-28T02:10:24;95484.28;;;2.10;94.96
68179;BME280;69812;42.632;23.440;2024-02-28T02:12:49;95467.50;;;1.90;94.93
68179;BME280;69812;42.632;23.440;2024-02-28T02:15:15;95485.75;;;1.96;95.25
68179;BME280;69812;42.632;23.440;2024-02-28T02:17:40;95475.84;;;1.92;95.40
68179;BME280;69812;42.632;23.440;2024-02-28T02:20:06;95476.53;;;1.95;95.62
68179;BME280;69812;42.632;23.440;2024-02-28T02:22:38;95459.63;;;1.96;95.61
68179;BME280;69812;42.632;23.440;2024-02-28T02:25:06;95475.72;;;2.12;94.80
68179;BME280;69812;42.632;23.440;2024-02-28T02:27:34;95472.34;;;2.46;94.99
68179;BME280;69812;42.632;23.440;2024-02-28T02:29:59;95461.03;;;2.36;94.19
68179;BME280;69812;42.632;23.440;2024-02-28T02:32:30;95471.22;;;2.70;95.60
68179;BME280;69812;42.632;23.440;2024-02-28T02:34:55;95466.63;;;2.60;97.39
68179;BME280;69812;42.632;23.440;2024-02-28T02:37:21;95456.66;;;2.22;97.13
68179;BME280;69812;42.632;23.440;2024-02-28T02:39:48;95473.84;;;1.98;97.18
68179;BME280;69812;42.632;23.440;2024-02-28T02:42:14;95472.84;;;1.83;97.38
68179;BME280;69812;42.632;23.440;2024-02-28T02:44:40;95478.47;;;1.71;97.17
68179;BME280;69812;42.632;23.440;2024-02-28T02:47:09;95460.81;;;1.52;97.52
68179;BME280;69812;42.632;23.440;2024-02-28T02:49:37;95468.25;;;1.55;97.77
68179;BME280;69812;42.632;23.440;2024-02-28T02:52:07;95478.44;;;1.54;98.12
68179;BME280;69812;42.632;23.440;2024-02-28T02:54:36;95469.50;;;1.83;99.21
68179;BME280;69812;42.632;23.440;2024-02-28T02:57:02;95460.09;;;2.39;100.00
68179;BME280;69812;42.632;23.440;2024-02-28T02:59:32;95479.94;;;2.46;100.00
68179;BME280;69812;42.632;23.440;2024-02-28T03:01:57;95464.31;;;2.21;100.00
68179;BME280;69812;42.632;23.440;2024-02-28T03:04:22;95454.16;;;1.86;100.00
68179;BME280;69812;42.632;23.440;2024-02-28T03:06:48;95463.44;;;1.68;100.00
68179;BME280;69812;42.632;23.440;2024-02-28T03:09:13;95463.16;;;1.74;100.00
68179;BME280;69812;42.632;23.440;2024-02-28T03:11:44;95483.47;;;1.73;100.00
68179;BME280;69812;42.632;23.440;2024-02-28T03:14:11;95479.28;;;1.54;99.95
68179;BME280;69812;42.632;23.440;2024-02-28T03:16:40;95486.66;;;1.59;99.14
68179;BME280;69812;42.632;23.440;2024-02-28T03:19:10;95479.41;;;1.32;99.05
68179;BME280;69812;42.632;23.440;2024-02-28T03:21:36;95489.66;;;1.29;99.25
68179;BME280;69812;42.632;23.440;2024-02-28T03:24:02;95466.09;;;1.29;98.97
68179;BME280;69812;42.632;23.440;2024-02-28T03:26:30;95485.75;;;1.41;99.11
68179;BME280;69812;42.632;23.440;2024-02-28T03:28:59;95485.91;;;1.38;99.08
68179;BME280;69812;42.632;23.440;2024-02-28T03:31:25;95476.22;;;1.29;99.21
68179;BME280;69812;42.632;23.440;2024-02-28T03:33:53;95491.59;;;1.24;98.90
68179;BME280;69812;42.632;23.440;2024-02-28T03:36:18;95487.28;;;1.26;99.43
68179;BME280;69812;42.632;23.440;2024-02-28T03:38:43;95478.69;;;1.30;99.33
68179;BME280;69812;42.632;23.440;2024-02-28T03:41:09;95500.59;;;1.30;99.29
68179;BME280;69812;42.632;23.440;2024-02-28T03:43:40;95491.97;;;1.53;98.61
68179;BME280;69812;42.632;23.440;2024-02-28T03:46:08;95495.66;;;1.64;97.64
68179;BME280;69812;42.632;23.440;2024-02-28T03:48:34;95474.66;;;1.62;97.16
68179;BME280;69812;42.632;23.440;2024-02-28T03:51:00;95481.06;;;1.52;96.91
68179;BME280;69812;42.632;23.440;2024-02-28T03:53:25;95477.56;;;1.17;96.99
68179;BME280;69812;42.632;23.440;2024-02-28T03:55:53;95481.47;;;1.24;97.57
68179;BME280;69812;42.632;23.440;2024-02-28T03:58:24;95499.91;;;1.45;98.44
68179;BME280;69812;42.632;23.440;2024-02-28T04:00:49;95491.28;;;1.49;99.45
68179;BME280;69812;42.632;23.440;2024-02-28T04:03:16;95486.66;;;1.40;99.74
68179;BME280;69812;42.632;23.440;2024-02-28T04:05:48;95493.75;;;1.32;99.49
68179;BME280;69812;42.632;23.440;2024-02-28T04:08:13;95485.44;;;1.11;99.79
68179;BME280;69812;42.632;23.440;2024-02-28T04:10:39;95498.13;;;1.09;99.72
68179;BME280;69812;42.632;23.440;2024-02-28T04:13:04;95488.97;;;1.07;100.00
68179;BME280;69812;42.632;23.440;2024-02-28T04:15:33;95480.72;;;1.22;100.00
68179;BME280;69812;42.632;23.440;2024-02-28T04:17:58;95488.28;;;1.41;100.00
68179;BME280;69812;42.632;23.440;2024-02-28T04:20:26;95489.94;;;1.61;100.00
68179;BME280;69812;42.632;23.440;2024-02-28T04:22:56;95477.06;;;1.66;100.00
68179;BME280;69812;42.632;23.440;2024-02-28T04:25:21;95483.81;;;2.01;100.00
68179;BME280;69812;42.632;23.440;2024-02-28T04:27:49;95493.66;;;2.08;100.00
68179;BME280;69812;42.632;23.440;2024-02-28T04:30:17;95487.47;;;1.96;100.00
68179;BME280;69812;42.632;23.440;2024-02-28T04:32:43;95491.25;;;1.87;100.00
68179;BME280;69812;42.632;23.440;2024-02-28T04:35:08;95493.44;;;2.12;100.00
68179;BME280;69812;42.632;23.440;2024-02-28T04:37:34;95478.28;;;1.76;99.91
68179;BME280;69812;42.632;23.440;2024-02-28T04:40:03;95487.47;;;1.59;100.00
68179;BME280;69812;42.632;23.440;2024-02-28T04:42:31;95491.66;;;1.41;100.00
68179;BME280;69812;42.632;23.440;2024-02-28T04:45:00;95482.34;;;1.23;100.00
68179;BME280;69812;42.632;23.440;2024-02-28T04:47:27;95483.50;;;1.16;100.00
68179;BME280;69812;42.632;23.440;2024-02-28T04:49:54;95489.72;;;1.09;100.00
68179;BME280;69812;42.632;23.440;2024-02-28T04:52:23;95488.28;;;1.03;100.00
68179;BME280;69812;42.632;23.440;2024-02-28T04:54:50;95493.88;;;1.10;100.00
68179;BME280;69812;42.632;23.440;2024-02-28T04:57:15;95489.19;;;1.02;100.00
68179;BME280;69812;42.632;23.440;2024-02-28T04:59:43;95503.84;;;1.13;100.00
68179;BME280;69812;42.632;23.440;2024-02-28T05:02:11;95502.28;;;1.10;100.00
68179;BME280;69812;42.632;23.440;2024-02-28T05:04:37;95490.50;;;1.11;100.00
68179;BME280;69812;42.632;23.440;2024-02-28T05:07:11;95491.31;;;1.11;100.00
68179;BME280;69812;42.632;23.440;2024-02-28T05:09:42;95510.59;;;1.33;100.00
68179;BME280;69812;42.632;23.440;2024-02-28T05:12:08;95519.06;;;1.51;100.00
68179;BME280;69812;42.632;23.440;2024-02-28T05:14:36;95511.53;;;1.68;100.00
68179;BME280;69812;42.632;23.440;2024-02-28T05:17:06;95524.97;;;1.88;100.00
68179;BME280;69812;42.632;23.440;2024-02-28T05:19:32;95529.22;;;1.68;100.00
68179;BME280;69812;42.632;23.440;2024-02-28T05:21:57;95520.06;;;1.47;100.00
68179;BME280;69812;42.632;23.440;2024-02-28T05:24:22;95514.69;;;1.35;100.00
68179;BME280;69812;42.632;23.440;2024-02-28T05:26:48;95541.25;;;1.82;100.00
68179;BME280;69812;42.632;23.440;2024-02-28T05:29:16;95536.00;;;1.87;100.00
68179;BME280;69812;42.632;23.440;2024-02-28T05:31:41;95538.69;;;2.01;100.00
68179;BME280;69812;42.632;23.440;2024-02-28T05:34:09;95546.03;;;2.24;100.00
68179;BME280;69812;42.632;23.440;2024-02-28T05:36:35;95534.28;;;2.58;100.00
68179;BME280;69812;42.632;23.440;2024-02-28T05:39:02;95540.63;;;2.84;100.00
68179;BME280;69812;42.632;23.440;2024-02-28T05:41:30;95550.84;;;3.16;100.00
68179;BME280;69812;42.632;23.440;2024-02-28T05:43:56;95554.59;;;3.58;99.64
68179;BME280;69812;42.632;23.440;2024-02-28T05:46:24;95556.50;;;3.86;96.12
68179;BME280;69812;42.632;23.440;2024-02-28T05:48:54;95568.63;;;4.13;90.57
68179;BME280;69812;42.632;23.440;2024-02-28T05:51:22;95553.03;;;4.03;90.38
68179;BME280;69812;42.632;23.440;2024-02-28T05:53:47;95567.13;;;4.55;89.05
68179;BME280;69812;42.632;23.440;2024-02-28T05:56:13;95564.63;;;5.00;87.00
68179;BME280;69812;42.632;23.440;2024-02-28T05:58:46;95571.97;;;5.04;82.38
68179;BME280;69812;42.632;23.440;2024-02-28T06:01:15;95579.84;;;4.85;81.78
68179;BME280;69812;42.632;23.440;2024-02-28T06:03:45;95584.09;;;5.15;82.59
68179;BME280;69812;42.632;23.440;2024-02-28T06:06:11;95588.91;;;5.63;79.73
68179;BME280;69812;42.632;23.440;2024-02-28T06:08:38;95576.28;;;6.31;78.82
68179;BME280;69812;42.632;23.440;2024-02-28T06:11:04;95575.34;;;6.60;78.21
68179;BME280;69812;42.632;23.440;2024-02-28T06:13:33;95575.81;;;7.43;76.55
68179;BME280;69812;42.632;23.440;2024-02-28T06:15:59;95590.44;;;8.40;70.91
68179;BME280;69812;42.632;23.440;2024-02-28T06:18:28;95584.94;;;9.29;68.26
68179;BME280;69812;42.632;23.440;2024-02-28T06:20:56;95578.66;;;9.66;67.09
68179;BME280;69812;42.632;23.440;2024-02-28T06:23:24;95593.81;;;8.89;67.56
68179;BME280;69812;42.632;23.440;2024-02-28T06:25:50;95585.78;;;8.94;67.78
68179;BME280;69812;42.632;23.440;2024-02-28T06:28:16;95591.78;;;9.28;66.52
68179;BME280;69812;42.632;23.440;2024-02-28T06:30:44;95592.47;;;10.20;64.72
68179;BME280;69812;42.632;23.440;2024-02-28T06:33:13;95601.53;;;10.47;63.35
68179;BME280;69812;42.632;23.440;2024-02-28T06:35:38;95584.53;;;10.46;62.82
68179;BME280;69812;42.632;23.440;2024-02-28T06:38:04;95593.69;;;10.60;62.08
68179;BME280;69812;42.632;23.440;2024-02-28T06:40:29;95597.38;;;10.99;62.11
68179;BME280;69812;42.632;23.440;2024-02-28T06:42:55;95593.72;;;11.96;58.77
68179;BME280;69812;42.632;23.440;2024-02-28T06:45:21;95584.81;;;12.09;58.58
68179;BME280;69812;42.632;23.440;2024-02-28T06:47:49;95598.75;;;12.96;54.71
68179;BME280;69812;42.632;23.440;2024-02-28T06:50:20;95601.25;;;13.92;51.89
68179;BME280;69812;42.632;23.440;2024-02-28T06:52:45;95605.56;;;14.56;50.99
68179;BME280;69812;42.632;23.440;2024-02-28T06:55:11;95599.34;;;14.49;52.22
68179;BME280;69812;42.632;23.440;2024-02-28T06:57:40;95600.16;;;14.22;50.44
68179;BME280;69812;42.632;23.440;2024-02-28T07:00:07;95588.94;;;14.13;50.35
68179;BME280;69812;42.632;23.440;2024-02-28T07:02:34;95600.28;;;14.30;52.42
68179;BME280;69812;42.632;23.440;2024-02-28T07:05:00;95597.47;;;14.42;52.22
68179;BME280;69812;42.632;23.440;2024-02-28T07:07:30;95596.97;;;13.83;51.77
68179;BME280;69812;42.632;23.440;2024-02-28T07:09:56;95586.03;;;14.72;49.69
68179;BME280;69812;42.632;23.440;2024-02-28T07:12:22;95594.66;;;14.81;49.61
68179;BME280;69812;42.632;23.440;2024-02-28T07:14:50;95595.44;;;15.17;51.24
68179;BME280;69812;42.632;23.440;2024-02-28T07:17:18;95594.66;;;15.16;49.11
68179;BME280;69812;42.632;23.440;2024-02-28T07:19:43;95594.81;;;15.67;47.91
68179;BME280;69812;42.632;23.440;2024-02-28T07:22:09;95589.34;;;15.70;47.21
68179;BME280;69812;42.632;23.440;2024-02-28T07:24:34;95596.75;;;14.31;51.12
68179;BME280;69812;42.632;23.440;2024-02-28T07:27:02;95590.25;;;14.73;49.93
68179;BME280;69812;42.632;23.440;2024-02-28T07:29:30;95595.53;;;15.51;47.71
68179;BME280;69812;42.632;23.440;2024-02-28T07:31:55;95588.31;;;15.89;47.16
68179;BME280;69812;42.632;23.440;2024-02-28T07:34:21;95597.03;;;15.36;47.98
68179;BME280;69812;42.632;23.440;2024-02-28T07:36:46;95599.50;;;15.19;49.64
68179;BME280;69812;42.632;23.440;2024-02-28T07:39:11;95590.91;;;16.32;47.55
68179;BME280;69812;42.632;23.440;2024-02-28T07:41:39;95597.56;;;15.92;47.82
68179;BME280;69812;42.632;23.440;2024-02-28T07:44:07;95599.78;;;15.87;46.99
68179;BME280;69812;42.632;23.440;2024-02-28T07:46:33;95598.56;;;15.47;48.51
68179;BME280;69812;42.632;23.440;2024-02-28T07:48:58;95591.00;;;15.09;49.20
68179;BME280;69812;42.632;23.440;2024-02-28T07:51:23;95592.53;;;15.20;49.00
68179;BME280;69812;42.632;23.440;2024-02-28T07:53:49;95587.81;;;15.86;48.30
68179;BME280;69812;42.632;23.440;2024-02-28T07:56:21;95593.13;;;15.32;49.34
68179;BME280;69812;42.632;23.440;2024-02-28T07:58:46;95576.78;;;15.05;49.44
68179;BME280;69812;42.632;23.440;2024-02-28T08:01:12;95592.22;;;14.97;50.96
68179;BME280;69812;42.632;23.440;2024-02-28T08:03:38;95588.03;;;15.22;50.24
68179;BME280;69812;42.632;23.440;2024-02-28T08:06:09;95594.03;;;15.05;49.79
68179;BME280;69812;42.632;23.440;2024-02-28T08:08:37;95593.31;;;14.58;51.28
68179;BME280;69812;42.632;23.440;2024-02-28T08:11:05;95589.50;;;14.63;51.77
68179;BME280;69812;42.632;23.440;2024-02-28T08:13:31;95588.47;;;14.55;50.49
68179;BME280;69812;42.632;23.440;2024-02-28T08:15:58;95576.63;;;13.80;52.24
68179;BME280;69812;42.632;23.440;2024-02-28T08:18:26;95584.50;;;13.21;53.83
68179;BME280;69812;42.632;23.440;2024-02-28T08:20:53;95585.91;;;13.53;54.05
68179;BME280;69812;42.632;23.440;2024-02-28T08:23:21;95559.69;;;13.30;54.97
68179;BME280;69812;42.632;23.440;2024-02-28T08:25:49;95572.28;;;13.23;55.13
68179;BME280;69812;42.632;23.440;2024-02-28T08:28:14;95582.47;;;12.95;55.92
68179;BME280;69812;42.632;23.440;2024-02-28T08:30:40;95569.22;;;13.57;54.83
68179;BME280;69812;42.632;23.440;2024-02-28T08:33:08;95567.94;;;13.24;55.90
68179;BME280;69812;42.632;23.440;2024-02-28T08:35:39;95578.38;;;13.22;55.31
68179;BME280;69812;42.632;23.440;2024-02-28T08:38:05;95584.66;;;13.10;55.96
68179;BME280;69812;42.632;23.440;2024-02-28T08:40:30;95590.06;;;12.87;56.86
68179;BME280;69812;42.632;23.440;2024-02-28T08:42:58;95577.31;;;13.05;56.87
68179;BME280;69812;42.632;23.440;2024-02-28T08:45:23;95582.47;;;13.05;55.36
68179;BME280;69812;42.632;23.440;2024-02-28T08:47:52;95565.09;;;13.07;55.56
68179;BME280;69812;42.632;23.440;2024-02-28T08:50:18;95563.91;;;12.92;56.05
68179;BME280;69812;42.632;23.440;2024-02-28T08:52:43;95574.84;;;13.33;55.08
68179;BME280;69812;42.632;23.440;2024-02-28T08:55:09;95559.75;;;13.58;55.23
68179;BME280;69812;42.632;23.440;2024-02-28T08:57:34;95565.03;;;13.56;54.87
68179;BME280;69812;42.632;23.440;2024-02-28T09:00:00;95572.16;;;13.34;54.51
68179;BME280;69812;42.632;23.440;2024-02-28T09:02:28;95568.28;;;13.48;55.98
68179;BME280;69812;42.632;23.440;2024-02-28T09:04:53;95562.38;;;13.09;56.19
68179;BME280;69812;42.632;23.440;2024-02-28T09:07:22;95553.75;;;12.90;56.55
68179;BME280;69812;42.632;23.440;2024-02-28T09:09:49;95572.28;;;13.23;56.61
68179;BME280;69812;42.632;23.440;2024-02-28T09:12:15;95562.66;;;12.96;56.62
68179;BME280;69812;42.632;23.440;2024-02-28T09:14:40;95569.97;;;13.20;55.26
68179;BME280;69812;42.632;23.440;2024-02-28T09:17:06;95572.41;;;13.41;54.79
68179;BME280;69812;42.632;23.440;2024-02-28T09:19:31;95568.50;;;13.08;55.91
68179;BME280;69812;42.632;23.440;2024-02-28T09:21:57;95571.06;;;12.98;55.65
68179;BME280;69812;42.632;23.440;2024-02-28T09:24:24;95572.97;;;12.96;54.86
68179;BME280;69812;42.632;23.440;2024-02-28T09:26:49;95566.94;;;13.54;54.34
68179;BME280;69812;42.632;23.440;2024-02-28T09:29:14;95576.56;;;14.17;52.63
68179;BME280;69812;42.632;23.440;2024-02-28T09:31:42;95562.63;;;14.55;51.09
68179;BME280;69812;42.632;23.440;2024-02-28T09:34:08;95565.66;;;14.69;50.92
68179;BME280;69812;42.632;23.440;2024-02-28T09:36:43;95558.28;;;14.28;50.63
68179;BME280;69812;42.632;23.440;2024-02-28T09:39:12;95559.22;;;14.91;50.42
68179;BME280;69812;42.632;23.440;2024-02-28T09:41:38;95554.44;;;15.48;48.58
68179;BME280;69812;42.632;23.440;2024-02-28T09:44:08;95549.16;;;15.58;47.57
68179;BME280;69812;42.632;23.440;2024-02-28T09:46:34;95557.59;;;15.34;47.78
68179;BME280;69812;42.632;23.440;2024-02-28T09:49:09;95554.09;;;15.43;46.76
68179;BME280;69812;42.632;23.440;2024-02-28T09:51:43;95551.03;;;15.22;51.41
68179;BME280;69812;42.632;23.440;2024-02-28T09:54:09;95547.03;;;14.29;50.20
68179;BME280;69812;42.632;23.440;2024-02-28T09:56:34;95543.94;;;14.79;48.72
68179;BME280;69812;42.632;23.440;2024-02-28T09:59:00;95554.22;;;15.15;49.05
68179;BME280;69812;42.632;23.440;2024-02-28T10:01:42;95543.66;;;15.61;48.00
68179;BME280;69812;42.632;23.440;2024-02-28T10:04:13;95543.66;;;15.61;47.88
68179;BME280;69812;42.632;23.440;2024-02-28T10:06:41;95535.16;;;15.69;48.60
68179;BME280;69812;42.632;23.440;2024-02-28T10:09:07;95536.69;;;15.79;47.00
68179;BME280;69812;42.632;23.440;2024-02-28T10:11:33;95538.44;;;15.00;49.36
68179;BME280;69812;42.632;23.440;2024-02-28T10:14:03;95543.44;;;15.20;49.02
68179;BME280;69812;42.632;23.440;2024-02-28T10:16:29;95529.41;;;14.96;49.59
68179;BME280;69812;42.632;23.440;2024-02-28T10:18:57;95526.16;;;14.94;48.88
68179;BME280;69812;42.632;23.440;2024-02-28T10:21:22;95523.31;;;15.32;49.43
68179;BME280;69812;42.632;23.440;2024-02-28T10:23:49;95525.78;;;15.41;48.03
68179;BME280;69812;42.632;23.440;2024-02-28T10:26:15;95523.47;;;15.30;49.25
68179;BME280;69812;42.632;23.440;2024-02-28T10:28:40;95519.22;;;15.81;47.21
68179;BME280;69812;42.632;23.440;2024-02-28T10:31:09;95517.72;;;16.21;47.61
68179;BME280;69812;42.632;23.440;2024-02-28T10:33:35;95505.44;;;16.32;45.86
68179;BME280;69812;42.632;23.440;2024-02-28T10:36:04;95504.00;;;16.78;45.24
68179;BME280;69812;42.632;23.440;2024-02-28T10:38:31;95505.78;;;17.27;44.70
68179;BME280;69812;42.632;23.440;2024-02-28T10:41:00;95502.53;;;17.33;42.97
68179;BME280;69812;42.632;23.440;2024-02-28T10:43:28;95488.47;;;16.70;44.38
68179;BME280;69812;42.632;23.440;2024-02-28T10:45:59;95491.34;;;17.33;43.55
68179;BME280;69812;42.632;23.440;2024-02-28T10:48:27;95492.69;;;17.68;42.79
68179;BME280;69812;42.632;23.440;2024-02-28T10:50:53;95478.13;;;17.98;42.54
68179;BME280;69812;42.632;23.440;2024-02-28T10:53:42;95488.94;;;17.62;42.18
68179;BME280;69812;42.632;23.440;2024-02-28T10:56:13;95473.75;;;17.99;41.96
68179;BME280;69812;42.632;23.440;2024-02-28T10:58:59;95477.75;;;18.56;41.40
68179;BME280;69812;42.632;23.440;2024-02-28T11:01:27;95479.25;;;18.27;42.17
68179;BME280;69812;42.632;23.440;2024-02-28T11:03:53;95465.53;;;18.41;41.03
68179;BME280;69812;42.632;23.440;2024-02-28T11:06:21;95473.53;;;18.09;41.15
68179;BME280;69812;42.632;23.440;2024-02-28T11:08:48;95470.63;;;17.08;43.94
68179;BME280;69812;42.632;23.440;2024-02-28T11:11:14;95461.25;;;16.82;43.67
68179;BME280;69812;42.632;23.440;2024-02-28T11:13:51;95459.47;;;16.42;45.52
68179;BME280;69812;42.632;23.440;2024-02-28T11:16:25;95454.75;;;16.13;46.14
68179;BME280;69812;42.632;23.440;2024-02-28T11:18:50;95445.47;;;15.94;46.03
68179;BME280;69812;42.632;23.440;2024-02-28T11:21:18;95442.25;;;15.92;47.53
68179;BME280;69812;42.632;23.440;2024-02-28T11:23:47;95450.50;;;15.95;48.03
68179;BME280;69812;42.632;23.440;2024-02-28T11:26:18;95445.34;;;16.04;47.38
68179;BME280;69812;42.632;23.440;2024-02-28T11:28:46;95435.81;;;16.12;47.17
68179;BME280;69812;42.632;23.440;2024-02-28T11:31:14;95432.84;;;15.91;46.89
68179;BME280;69812;42.632;23.440;2024-02-28T11:33:42;95425.91;;;15.91;47.13
68179;BME280;69812;42.632;23.440;2024-02-28T11:36:08;95418.78;;;15.77;47.21
68179;BME280;69812;42.632;23.440;2024-02-28T11:38:50;95416.69;;;15.89;48.63
68179;BME280;69812;42.632;23.440;2024-02-28T11:41:25;95431.41;;;16.05;46.25
68179;BME280;69812;42.632;23.440;2024-02-28T11:43:51;95426.09;;;16.14;47.64
68179;BME280;69812;42.632;23.440;2024-02-28T11:46:16;95413.81;;;16.25;47.67
68179;BME280;69812;42.632;23.440;2024-02-28T11:48:45;95415.59;;;16.24;45.99
68179;BME280;69812;42.632;23.440;2024-02-28T11:51:11;95406.69;;;16.51;45.56
68179;BME280;69812;42.632;23.440;2024-02-28T11:53:36;95405.69;;;16.60;44.78
68179;BME280;69812;42.632;23.440;2024-02-28T11:56:02;95406.69;;;16.35;45.41
68179;BME280;69812;42.632;23.440;2024-02-28T11:58:28;95405.59;;;15.62;46.30
68179;BME280;69812;42.632;23.440;2024-02-28T12:00:53;95402.94;;;15.88;46.18
68179;BME280;69812;42.632;23.440;2024-02-28T12:03:20;95404.84;;;15.78;45.07
68179;BME280;69812;42.632;23.440;2024-02-28T12:05:46;95398.16;;;15.67;45.22
68179;BME280;69812;42.632;23.440;2024-02-28T12:08:11;95401.78;;;15.74;45.34
68179;BME280;69812;42.632;23.440;2024-02-28T12:10:37;95389.00;;;15.73;44.97
68179;BME280;69812;42.632;23.440;2024-02-28T12:13:02;95392.09;;;15.93;45.22
68179;BME280;69812;42.632;23.440;2024-02-28T12:15:31;95396.00;;;16.21;44.39
68179;BME280;69812;42.632;23.440;2024-02-28T12:17:57;95394.22;;;16.06;44.13
68179;BME280;69812;42.632;23.440;2024-02-28T12:20:25;95384.19;;;16.11;44.29
68179;BME280;69812;42.632;23.440;2024-02-28T12:22:51;95386.78;;;15.94;43.76
68179;BME280;69812;42.632;23.440;2024-02-28T12:25:16;95370.41;;;15.94;43.48
68179;BME280;69812;42.632;23.440;2024-02-28T12:27:41;95376.41;;;16.19;43.30
68179;BME280;69812;42.632;23.440;2024-02-28T12:30:07;95370.75;;;16.23;43.37
68179;BME280;69812;42.632;23.440;2024-02-28T12:32:33;95373.84;;;16.35;42.80
68179;BME280;69812;42.632;23.440;2024-02-28T12:34:58;95369.63;;;16.34;41.77
68179;BME280;69812;42.632;23.440;2024-02-28T12:37:23;95372.66;;;16.54;42.00
68179;BME280;69812;42.632;23.440;2024-02-28T12:39:49;95356.81;;;16.41;40.47
68179;BME280;69812;42.632;23.440;2024-02-28T12:42:16;95357.31;;;16.45;41.11
68179;BME280;69812;42.632;23.440;2024-02-28T12:44:44;95368.66;;;16.27;41.06
68179;BME280;69812;42.632;23.440;2024-02-28T12:47:12;95362.19;;;15.98;42.63
68179;BME280;69812;42.632;23.440;2024-02-28T12:49:40;95362.53;;;16.20;41.26
68179;BME280;69812;42.632;23.440;2024-02-28T12:52:05;95350.69;;;16.26;41.58
68179;BME280;69812;42.632;23.440;2024-02-28T12:54:33;95354.38;;;16.64;41.35
68179;BME280;69812;42.632;23.440;2024-02-28T12:56:59;95339.97;;;16.45;40.21
68179;BME280;69812;42.632;23.440;2024-02-28T12:59:30;95352.97;;;16.12;40.80
68179;BME280;69812;42.632;23.440;2024-02-28T13:01:58;95349.88;;;16.25;40.82
68179;BME280;69812;42.632;23.440;2024-02-28T13:04:25;95347.25;;;16.58;39.69
68179;BME280;69812;42.632;23.440;2024-02-28T13:06:52;95352.13;;;16.45;40.17